createdAt,value
2023-04-10T09:38:17.752Z,29312.00
2023-04-10T09:53:17.720Z,42720.00
2023-04-10T10:08:17.777Z,52064.00
2023-04-10T10:23:17.833Z,47040.00
2023-04-10T10:38:18.593Z,48224.00
2023-04-10T10:53:18.983Z,51136.00
2023-04-10T11:08:19.212Z,58176.00
2023-04-10T11:23:19.223Z,61088.00
2023-04-10T11:38:19.833Z,66144.00
2023-04-10T11:53:20.119Z,74176.00
2023-04-10T12:08:20.749Z,74944.00
2023-04-10T12:23:21.471Z,74592.00
2023-04-10T12:38:21.620Z,68128.00
2023-04-10T12:53:23.036Z,65920.00
2023-04-10T13:08:23.006Z,73504.00
2023-04-10T13:23:23.485Z,67360.00
2023-04-10T13:38:23.272Z,82976.00
2023-04-10T13:53:23.514Z,79136.00
2023-04-10T14:08:24.263Z,87360.00
2023-04-10T14:23:25.716Z,80416.00
2023-04-10T14:38:26.225Z,47520.00
2023-04-10T14:53:27.463Z,44704.00
2023-04-10T15:08:27.927Z,34368.00
2023-04-10T15:23:28.094Z,53632.00
2023-04-10T15:38:28.566Z,31392.00
2023-04-10T15:53:29.408Z,8740.00
2023-04-10T16:08:29.156Z,5996.00
2023-04-10T16:23:29.647Z,6944.00
2023-04-10T16:38:30.614Z,5628.00
2023-04-10T16:53:30.965Z,4084.00
2023-04-10T17:08:31.854Z,3084.00
2023-04-10T17:23:32.539Z,1712.00
2023-04-10T17:38:33.273Z,612.00
2023-04-10T17:53:33.608Z,184.00
2023-04-10T18:08:33.675Z,40.00
2023-04-10T18:23:34.067Z,4.00
2023-04-10T18:38:34.415Z,0.00
2023-04-10T18:53:34.892Z,0.00
2023-04-10T19:08:35.684Z,0.00
2023-04-10T19:23:35.311Z,0.00
2023-04-10T19:38:36.327Z,0.00
2023-04-10T19:53:36.556Z,0.00
2023-04-10T20:08:37.119Z,0.00
2023-04-10T20:23:37.181Z,0.00
2023-04-10T20:38:38.764Z,0.00
2023-04-10T20:53:39.443Z,0.00
2023-04-10T21:08:40.001Z,0.00
2023-04-10T21:23:40.627Z,0.00
2023-04-10T21:38:40.696Z,0.00
2023-04-10T21:53:40.794Z,0.00
2023-04-10T22:08:42.658Z,0.00
2023-04-10T22:23:42.681Z,0.00
2023-04-10T22:38:43.297Z,0.00
2023-04-10T22:53:43.434Z,0.00
2023-04-10T23:08:43.609Z,0.00
2023-04-10T23:23:43.596Z,0.00
2023-04-10T23:38:44.188Z,0.00
2023-04-10T23:53:44.852Z,0.00
